This is the latest recevied weather packets stored in our database for station/object W4KBW. If no packets are shown the sender has not sent any weather packets the latest 10 day(s).
| Time | Temp. | Humidity | Pressure | Rain* | Wind** | Luminosity | Snow |
|---|---|---|---|---|---|---|---|
| 1777769301 | 21.67° C | 100% | 1009.8 hPa | 0 mm | - | - | - |
| 1777768401 | 21.67° C | 100% | 1009.6 hPa | 0 mm | - | - | - |
| 1777767669 | 21.67° C | 100% | 1009.3 hPa | 0 mm | - | - | - |
| 1777767441 | 21.67° C | 100% | 1009.3 hPa | 0 mm | - | - | - |
| 1777766511 | 22.22° C | 100% | 1009.2 hPa | 0 mm | - | - | - |
| 1777765611 | 21.67° C | 100% | 1009.1 hPa | 0 mm | - | - | - |
| 1777764711 | 21.67° C | 100% | 1009.2 hPa | 0 mm | - | - | - |
| 1777764234 | 21.67° C | 100% | 1009.6 hPa | 0.25 mm | - | - | - |
| 1777763811 | 21.67° C | 100% | 1009.6 hPa | 0.25 mm | - | - | - |
| 1777762881 | 21.67° C | 100% | 1009.9 hPa | 0.25 mm | - | - | - |
| 1777761951 | 21.67° C | 100% | 1009.5 hPa | 0.25 mm | - | - | - |
| 1777761103 | 21.67° C | 100% | 1008.9 hPa | 0.25 mm | - | - | - |
| 1777761051 | 21.67° C | 100% | 1008.9 hPa | 0.25 mm | - | - | - |
| 1777760258 | 21.67° C | 100% | 1009.1 hPa | 0 mm | - | - | - |
| 1777760121 | 21.67° C | 100% | 1009.1 hPa | 0 mm | - | - | - |
| 1777759221 | 21.67° C | 100% | 1009.1 hPa | 0 mm | - | - | - |
| 1777758321 | 21.67° C | 100% | 1009.1 hPa | 0.51 mm | - | - | - |
| 1777757421 | 21.67° C | 100% | 1009.1 hPa | 1.52 mm | - | - | - |
| 1777756602 | 21.67° C | 100% | 1008.1 hPa | 1.52 mm | - | - | - |
| 1777756521 | 21.67° C | 100% | 1008.1 hPa | 1.52 mm | - | - | - |
| 1777755666 | 21.67° C | 100% | 1008.5 hPa | 1.78 mm | - | - | - |
| 1777755591 | 21.67° C | 100% | 1008.5 hPa | 1.78 mm | - | - | - |
| 1777754787 | 21.11° C | 100% | 1009.6 hPa | 2.03 mm | - | - | - |
| 1777754691 | 21.11° C | 100% | 1009.6 hPa | 2.03 mm | - | - | - |
| 1777753791 | 21.67° C | 100% | 1010.6 hPa | 3.81 mm | - | - | - |
* Rain latest hour (hover to see other rain measurements)
** Current wind speed in m/s (hover to see current wind gust speed)